createdAt,value
2022-09-06T00:04:08.124Z,24.98
2022-09-06T00:09:15.889Z,12.23
2022-09-06T00:14:21.520Z,21.67
2022-09-06T00:24:31.599Z,15.38
2022-09-06T00:29:37.350Z,16.15
2022-09-06T00:39:47.898Z,20.67
2022-09-06T00:44:53.693Z,16.95
2022-09-06T00:50:01.732Z,21.77
2022-09-06T00:55:08.637Z,12.55
2022-09-06T01:00:14.661Z,13.75
2022-09-06T01:05:20.748Z,19.20
2022-09-06T01:10:49.376Z,15.05
2022-09-06T01:16:29.833Z,11.57
2022-09-06T01:22:13.800Z,8.43
2022-09-06T01:27:35.451Z,10.43
2022-09-06T01:33:05.392Z,16.42
2022-09-06T01:38:12.270Z,13.90
2022-09-06T01:43:35.329Z,19.10
2022-09-06T01:49:10.912Z,13.90
2022-09-06T01:54:45.542Z,14.97
2022-09-06T02:00:05.979Z,10.00
2022-09-06T02:05:23.375Z,16.20
2022-09-06T02:10:45.513Z,12.57
2022-09-06T02:15:58.176Z,12.57
2022-09-06T02:21:05.051Z,14.27
2022-09-06T02:26:31.929Z,20.52
2022-09-06T02:31:49.619Z,17.13
2022-09-06T02:36:56.237Z,19.65
2022-09-06T02:42:03.083Z,18.98
2022-09-06T02:47:09.231Z,19.75
2022-09-06T02:52:15.256Z,15.02
2022-09-06T02:57:21.320Z,13.57
2022-09-06T03:02:27.570Z,18.75
2022-09-06T03:07:33.075Z,14.95
2022-09-06T03:17:44.322Z,14.63
2022-09-06T03:22:51.079Z,18.50
2022-09-06T03:27:57.028Z,22.02
2022-09-06T03:33:03.083Z,13.07
2022-09-06T03:38:08.746Z,16.58
2022-09-06T03:43:15.074Z,16.10
2022-09-06T03:48:23.716Z,14.48
2022-09-06T03:53:31.503Z,16.88
2022-09-06T03:58:37.021Z,19.83
2022-09-06T04:03:43.063Z,16.40
2022-09-06T04:08:48.934Z,21.38
2022-09-06T04:13:54.407Z,20.33
2022-09-06T04:19:01.657Z,18.65
2022-09-06T04:24:07.643Z,17.90
2022-09-06T04:29:13.356Z,20.65
2022-09-06T04:34:28.406Z,13.30
2022-09-06T04:39:36.404Z,19.80
2022-09-06T04:44:42.177Z,17.73
2022-09-06T04:49:49.837Z,20.55
2022-09-06T04:54:55.371Z,16.42
2022-09-06T05:00:00.971Z,20.45
2022-09-06T05:05:06.760Z,11.48
2022-09-06T05:10:12.347Z,18.73
2022-09-06T05:15:18.714Z,16.73
2022-09-06T05:20:24.132Z,19.05
2022-09-06T05:30:34.514Z,20.27
2022-09-06T05:35:40.089Z,6.68
2022-09-06T05:40:45.803Z,17.38
2022-09-06T05:45:51.634Z,17.02
2022-09-06T05:51:16.663Z,14.95
2022-09-06T05:56:23.807Z,16.20
2022-09-06T06:01:32.452Z,15.85
2022-09-06T06:06:38.215Z,11.93
2022-09-06T06:11:44.883Z,15.52
2022-09-06T06:16:50.430Z,15.30
2022-09-06T06:21:57.818Z,13.70
2022-09-06T06:27:03.191Z,11.65
2022-09-06T06:32:08.874Z,16.63
2022-09-06T06:37:17.272Z,16.20
2022-09-06T06:42:23.093Z,11.95
2022-09-06T06:47:30.906Z,9.63
2022-09-06T06:52:36.061Z,9.98
2022-09-06T07:02:47.132Z,12.67
2022-09-06T07:07:52.775Z,11.63
2022-09-06T07:12:58.054Z,8.18
2022-09-06T07:18:03.758Z,10.32
2022-09-06T07:33:40.815Z,14.47
2022-09-06T07:38:51.498Z,10.48
2022-09-06T07:44:00.092Z,11.63
2022-09-06T07:49:09.792Z,10.30
2022-09-06T07:54:31.378Z,9.27
2022-09-06T07:59:40.052Z,10.27
2022-09-06T08:04:51.526Z,12.57
2022-09-06T08:09:57.227Z,14.20
2022-09-06T08:15:02.813Z,13.43
2022-09-06T08:20:09.251Z,14.07
2022-09-06T08:25:14.779Z,14.55
2022-09-06T08:30:20.101Z,15.25
2022-09-06T08:35:25.763Z,10.07
2022-09-06T08:40:31.556Z,12.73
2022-09-06T08:45:37.495Z,10.85
2022-09-06T08:50:47.292Z,12.10
2022-09-06T08:55:52.460Z,11.88
2022-09-06T09:01:03.762Z,15.23
2022-09-06T09:06:11.833Z,10.85
2022-09-06T09:11:25.228Z,10.93
2022-09-06T09:16:31.050Z,10.75
2022-09-06T09:21:40.019Z,16.90
2022-09-06T09:27:06.503Z,15.63
2022-09-06T09:32:12.067Z,13.65
2022-09-06T09:42:52.904Z,13.63
2022-09-06T09:47:58.549Z,14.98
2022-09-06T09:53:15.882Z,14.23
2022-09-06T09:58:37.454Z,17.02
2022-09-06T10:14:49.342Z,13.60
2022-09-06T10:19:55.928Z,10.80
2022-09-06T10:25:32.211Z,18.00
2022-09-06T10:30:43.123Z,13.20
2022-09-06T10:35:48.313Z,17.73
2022-09-06T10:46:24.785Z,22.25
2022-09-06T10:51:47.294Z,20.30
2022-09-06T11:08:50.362Z,19.38
2022-09-06T11:14:01.406Z,24.48
2022-09-06T11:19:19.008Z,18.10
2022-09-06T11:24:46.024Z,16.23
2022-09-06T11:29:57.931Z,14.93
2022-09-06T11:35:08.830Z,22.95
2022-09-06T11:40:28.401Z,22.75
2022-09-06T11:45:51.208Z,19.48
2022-09-06T11:50:56.748Z,18.67
2022-09-06T11:56:05.069Z,16.58
2022-09-06T12:01:18.193Z,18.40
2022-09-06T12:06:35.267Z,19.50
2022-09-06T12:11:46.633Z,26.42
2022-09-06T12:17:06.215Z,23.75
2022-09-06T12:22:49.735Z,25.48
2022-09-06T12:28:00.577Z,28.73
2022-09-06T12:33:23.907Z,26.02
2022-09-06T12:38:30.142Z,27.08
2022-09-06T12:43:37.829Z,22.60
2022-09-06T12:48:45.959Z,45.83
2022-09-06T12:53:57.244Z,46.50
2022-09-06T12:59:18.597Z,51.38
2022-09-06T13:04:42.660Z,36.22
2022-09-06T13:09:52.338Z,36.53
2022-09-06T13:15:05.059Z,39.58
2022-09-06T13:20:29.681Z,44.08
2022-09-06T13:25:35.543Z,39.42
2022-09-06T13:30:50.101Z,34.85
2022-09-06T13:36:21.487Z,32.50
2022-09-06T13:41:30.319Z,35.47
2022-09-06T13:46:37.886Z,31.40
2022-09-06T13:51:44.938Z,30.75
2022-09-06T13:56:51.586Z,32.03
2022-09-06T14:02:11.420Z,28.27
2022-09-06T14:07:17.378Z,26.88
2022-09-06T14:12:23.073Z,31.15
2022-09-06T14:17:29.271Z,30.35
2022-09-06T14:22:35.107Z,30.83
2022-09-06T14:27:42.236Z,26.52
2022-09-06T14:32:48.056Z,36.83
2022-09-06T14:37:53.746Z,39.78
2022-09-06T14:42:59.875Z,46.08
2022-09-06T14:48:06.277Z,42.63
2022-09-06T14:53:36.784Z,47.15
2022-09-06T14:58:40.007Z,43.45
2022-09-06T15:03:49.974Z,51.28
2022-09-06T15:08:59.348Z,45.80
2022-09-06T15:14:09.337Z,40.88
2022-09-06T15:19:16.245Z,49.33
2022-09-06T15:24:23.559Z,43.50
2022-09-06T15:29:29.668Z,44.15
2022-09-06T15:34:35.308Z,45.70
2022-09-06T15:39:40.695Z,44.35
2022-09-06T15:49:52.380Z,48.63
2022-09-06T15:55:16.582Z,52.22
2022-09-06T16:00:24.095Z,47.70
2022-09-06T16:10:55.386Z,38.85
2022-09-06T16:21:12.059Z,46.67
2022-09-06T16:26:21.309Z,42.33
2022-09-06T16:31:28.591Z,42.97
2022-09-06T16:36:34.050Z,45.08
2022-09-06T16:46:49.047Z,46.53
2022-09-06T16:51:54.647Z,42.58
2022-09-06T17:02:05.402Z,37.65
2022-09-06T17:07:11.089Z,34.70
2022-09-06T17:12:17.171Z,38.25
2022-09-06T17:17:22.727Z,33.97
2022-09-06T17:22:28.771Z,38.60
2022-09-06T17:27:34.612Z,32.90
2022-09-06T17:32:40.255Z,31.20
2022-09-06T17:37:45.520Z,29.58
2022-09-06T17:47:56.264Z,32.53
2022-09-06T17:58:08.075Z,31.77
2022-09-06T18:03:14.012Z,35.35
2022-09-06T18:08:19.703Z,41.83
2022-09-06T18:13:25.532Z,37.05
2022-09-06T18:18:32.025Z,34.90
2022-09-06T18:23:38.256Z,43.05
2022-09-06T18:28:44.134Z,37.13
2022-09-06T18:33:49.867Z,35.25
2022-09-06T18:38:55.034Z,32.70
2022-09-06T18:44:02.183Z,38.60
2022-09-06T18:49:08.878Z,33.17
2022-09-06T18:54:15.121Z,30.42
2022-09-06T18:59:20.956Z,38.25
2022-09-06T19:04:26.864Z,34.45
2022-09-06T19:09:32.731Z,32.83
2022-09-06T19:14:38.537Z,36.00
2022-09-06T19:19:43.813Z,34.13
2022-09-06T19:24:49.283Z,37.17
2022-09-06T19:29:54.516Z,40.30
2022-09-06T19:35:00.286Z,41.42
2022-09-06T19:40:06.225Z,42.53
2022-09-06T19:45:12.280Z,41.78
2022-09-06T19:50:18.032Z,33.70
2022-09-06T19:55:23.304Z,30.25
2022-09-06T20:05:39.959Z,40.50
2022-09-06T20:10:58.116Z,41.30
2022-09-06T20:16:06.279Z,44.00
2022-09-06T20:21:15.431Z,37.22
2022-09-06T20:26:21.579Z,40.55
2022-09-06T20:31:28.701Z,49.90
2022-09-06T20:36:34.565Z,50.95
2022-09-06T20:41:40.199Z,52.65
2022-09-06T20:46:45.826Z,49.35
2022-09-06T20:51:51.603Z,55.22
2022-09-06T20:56:56.937Z,61.55
2022-09-06T21:07:08.522Z,56.80
2022-09-06T21:12:14.152Z,58.13
2022-09-06T21:22:24.640Z,55.55
2022-09-06T21:32:34.836Z,65.03
2022-09-06T21:37:40.229Z,54.78
2022-09-06T21:42:46.194Z,59.55
2022-09-06T21:47:52.077Z,55.53
2022-09-06T21:52:57.401Z,62.22
2022-09-06T22:03:08.924Z,57.73
2022-09-06T22:08:14.316Z,56.45
2022-09-06T22:13:21.908Z,55.17
2022-09-06T22:18:27.741Z,60.58
2022-09-06T22:23:33.945Z,58.30
2022-09-06T22:28:40.353Z,51.10
2022-09-06T22:33:46.212Z,55.03
2022-09-06T22:38:54.598Z,60.13
2022-09-06T22:44:03.344Z,57.67
2022-09-06T22:49:09.934Z,64.28
2022-09-06T22:54:16.397Z,57.90
2022-09-06T22:59:26.056Z,63.88
2022-09-06T23:04:33.671Z,64.45
2022-09-06T23:09:40.113Z,57.67
2022-09-06T23:14:46.435Z,57.28
2022-09-06T23:19:51.620Z,74.50
2022-09-06T23:24:57.517Z,75.25
2022-09-06T23:30:04.841Z,87.05
2022-09-06T23:35:12.257Z,74.45
2022-09-06T23:40:18.499Z,73.80
2022-09-06T23:45:24.034Z,77.20
2022-09-06T23:50:29.863Z,83.35
2022-09-06T23:55:35.209Z,86.80
